Time;durP1;ratioP1;P1;durP2;ratioP2;P2;SDS_P1;SDS_P2;PMS_P1;PMS_P2;Temp;Humidity;BMP_temperature;BMP_pressure;BME280_temperature;BME280_humidity;BME280_pressure;Samples;Min_cycle;Max_cycle;Signal;HPM_P1;HPM_P2
2022/01/22 00:01:33;;;;;;;11.32;7.18;;;;;;;;;;5012890;28;20100;-74
2022/01/22 00:04:00;;;;;;;12.88;7.05;;;;;;;;;;5005667;28;20062;-74
2022/01/22 00:06:26;;;;;;;8.38;6.85;;;;;;;;;;5013383;28;20045;-74
2022/01/22 00:08:53;;;;;;;12.65;7.93;;;;;;;;;;5004593;28;20124;-74
2022/01/22 00:11:19;;;;;;;11.80;7.35;;;;;;;;;;5013168;28;20525;-74
2022/01/22 00:16:31;;;;;;;7.80;5.95;;;;;;;;;;5013309;28;20053;-74
2022/01/22 00:19:08;;;;;;;13.57;7.05;;;;;;;;;;5003071;28;20053;-74
2022/01/22 00:21:34;;;;;;;10.52;6.75;;;;;;;;;;5013109;28;20108;-74
2022/01/22 00:24:02;;;;;;;10.82;7.20;;;;;;;;;;5001766;28;20493;-74
2022/01/22 00:26:28;;;;;;;;;;;;;;;;;;5004703;28;20050;-74
2022/01/22 00:28:55;;;;;;;11.50;7.47;;;;;;;;;;5012682;28;19929;-74
2022/01/22 00:31:21;;;;;;;8.65;6.80;;;;;;;;;;5012495;28;20520;-74
2022/01/22 00:33:48;;;;;;;9.10;6.97;;;;;;;;;;5012668;28;20046;-74
2022/01/22 00:36:14;;;;;;;9.32;6.70;;;;;;;;;;5012997;28;20053;-74
2022/01/22 00:38:41;;;;;;;7.93;6.10;;;;;;;;;;5013080;28;20054;-74
2022/01/22 00:41:07;;;;;;;7.75;6.00;;;;;;;;;;5012951;28;20050;-75
2022/01/22 00:43:33;;;;;;;6.65;5.63;;;;;;;;;;5012590;28;20509;-74
2022/01/22 00:46:00;;;;;;;9.07;6.03;;;;;;;;;;5012729;28;20081;-74
2022/01/22 00:48:27;;;;;;;7.45;5.80;;;;;;;;;;5011288;28;20053;-75
2022/01/22 00:50:56;;;;;;;8.93;5.90;;;;;;;;;;5012668;28;20096;-74
2022/01/22 00:53:24;;;;;;;11.48;7.10;;;;;;;;;;5012672;28;20042;-75
2022/01/22 00:55:51;;;;;;;7.65;5.80;;;;;;;;;;5011156;28;20502;-74
2022/01/22 00:58:17;;;;;;;8.15;5.68;;;;;;;;;;5011635;28;20100;-74
2022/01/22 01:00:44;;;;;;;8.38;6.22;;;;;;;;;;5012356;28;20502;-75
2022/01/22 01:03:11;;;;;;;11.03;6.00;;;;;;;;;;5012471;28;20100;-73
2022/01/22 01:05:38;;;;;;;10.32;5.53;;;;;;;;;;5011383;28;20045;-73
2022/01/22 01:08:04;;;;;;;7.82;5.30;;;;;;;;;;5012434;28;20478;-74
2022/01/22 01:10:31;;;;;;;7.40;5.30;;;;;;;;;;5012067;28;20045;-74
2022/01/22 01:12:57;;;;;;;7.00;5.40;;;;;;;;;;5012291;28;20050;-74
2022/01/22 01:15:54;;;;;;;9.15;5.22;;;;;;;;;;5012326;28;20069;-74
2022/01/22 01:34:41;;;;;;;6.05;4.60;;;;;;;;;;5011995;28;20041;-73
2022/01/22 01:37:08;;;;;;;5.88;4.72;;;;;;;;;;5010669;28;20413;-73
2022/01/22 01:39:37;;;;;;;6.57;5.13;;;;;;;;;;5011753;28;20050;-73
2022/01/22 01:42:14;;;;;;;5.63;4.82;;;;;;;;;;5011606;28;20498;-73
2022/01/22 01:44:41;;;;;;;8.27;5.28;;;;;;;;;;5011878;28;20576;-73
2022/01/22 01:47:09;;;;;;;8.50;5.72;;;;;;;;;;5011757;28;20148;-73
2022/01/22 01:49:36;;;;;;;7.13;5.28;;;;;;;;;;5012006;28;20080;-73
2022/01/22 01:52:05;;;;;;;7.20;5.38;;;;;;;;;;5011887;28;20076;-73
2022/01/22 01:59:50;;;;;;;6.63;5.18;;;;;;;;;;5015559;28;20050;-74
2022/01/22 02:02:17;;;;;;;6.47;5.03;;;;;;;;;;5015981;28;20057;-74
2022/01/22 02:04:44;;;;;;;5.95;5.35;;;;;;;;;;5015487;28;20113;-74
2022/01/22 02:07:10;;;;;;;7.78;5.22;;;;;;;;;;5015603;28;20101;-74
2022/01/22 02:09:38;;;;;;;6.68;5.63;;;;;;;;;;5015435;28;20057;-75
2022/01/22 02:12:49;;;;;;;6.80;5.55;;;;;;;;;;5015384;28;20092;-75
2022/01/22 02:25:56;;;;;;;6.28;5.10;;;;;;;;;;5015496;28;20096;-75
2022/01/22 02:28:22;;;;;;;5.78;4.65;;;;;;;;;;5015189;28;20049;-75
2022/01/22 02:30:54;;;;;;;5.88;5.15;;;;;;;;;;5013840;28;20045;-75
2022/01/22 02:35:55;;;;;;;6.07;4.93;;;;;;;;;;5015120;28;20049;-74
2022/01/22 02:38:32;;;;;;;7.00;5.10;;;;;;;;;;4998662;28;20490;-74
2022/01/22 02:40:59;;;;;;;7.17;4.57;;;;;;;;;;5015406;28;20124;-74
2022/01/22 02:43:25;;;;;;;7.40;4.40;;;;;;;;;;5014778;28;20497;-75
2022/01/22 02:45:53;;;;;;;5.95;4.20;;;;;;;;;;5015073;28;20041;-75
2022/01/22 02:48:19;;;;;;;5.28;4.32;;;;;;;;;;5013858;28;20092;-75
2022/01/22 02:50:46;;;;;;;7.28;4.50;;;;;;;;;;5014726;28;20037;-75
2022/01/22 02:53:12;;;;;;;5.90;4.40;;;;;;;;;;5014810;28;20046;-75
2022/01/22 02:55:40;;;;;;;5.90;4.50;;;;;;;;;;5013486;28;20108;-75
2022/01/22 02:58:06;;;;;;;6.15;4.40;;;;;;;;;;5014769;28;20053;-75
2022/01/22 03:00:33;;;;;;;5.93;5.25;;;;;;;;;;5014779;28;20049;-75
2022/01/22 03:03:00;;;;;;;4.85;4.00;;;;;;;;;;5014669;28;20132;-75
2022/01/22 03:05:26;;;;;;;7.50;4.32;;;;;;;;;;5014622;28;20054;-75
2022/01/22 03:07:55;;;;;;;5.93;4.68;;;;;;;;;;5014819;28;20046;-75
2022/01/22 03:10:25;;;;;;;6.72;4.85;;;;;;;;;;5014195;28;20457;-75
2022/01/22 03:18:37;;;;;;;6.32;4.25;;;;;;;;;;5014341;28;20100;-74
2022/01/22 03:29:15;;;;;;;5.75;5.03;;;;;;;;;;5013930;28;20461;-73
2022/01/22 03:31:42;;;;;;;7.82;4.78;;;;;;;;;;5013967;28;20100;-73
2022/01/22 03:34:09;;;;;;;9.33;4.90;;;;;;;;;;5014385;28;20099;-74
2022/01/22 03:36:36;;;;;;;9.00;4.50;;;;;;;;;;5013991;28;20054;-73
2022/01/22 03:39:04;;;;;;;5.93;4.50;;;;;;;;;;5013753;28;20333;-73
2022/01/22 03:41:30;;;;;;;;;;;;;;;;;;5013174;28;20100;-74
2022/01/22 03:43:57;;;;;;;6.47;4.63;;;;;;;;;;5013842;28;19995;-74
2022/01/22 03:46:24;;;;;;;5.97;4.93;;;;;;;;;;5013916;28;20111;-74
2022/01/22 03:48:50;;;;;;;6.65;4.82;;;;;;;;;;5013474;28;20046;-74
2022/01/22 03:51:17;;;;;;;7.90;5.07;;;;;;;;;;5013786;28;20099;-74
2022/01/22 03:53:43;;;;;;;6.80;4.55;;;;;;;;;;5013885;28;20477;-74
2022/01/22 03:56:11;;;;;;;7.10;4.88;;;;;;;;;;5013540;28;20092;-74
2022/01/22 03:58:39;;;;;;;6.32;4.53;;;;;;;;;;5012080;28;20049;-74
2022/01/22 04:03:40;;;;;;;7.28;4.68;;;;;;;;;;5013461;28;20091;-74
2022/01/22 04:08:35;;;;;;;6.28;4.55;;;;;;;;;;5013041;28;20081;-74
2022/01/22 04:11:02;;;;;;;7.03;5.10;;;;;;;;;;5013227;28;20100;-74
2022/01/22 04:13:33;;;;;;;6.90;5.00;;;;;;;;;;5013028;28;20080;-74
2022/01/22 04:16:00;;;;;;;7.47;5.50;;;;;;;;;;5013307;28;20096;-74
2022/01/22 04:26:52;;;;;;;7.93;5.57;;;;;;;;;;5012962;28;20050;-74
2022/01/22 04:29:19;;;;;;;6.53;4.65;;;;;;;;;;5013056;28;20449;-74
2022/01/22 04:31:46;;;;;;;7.32;5.45;;;;;;;;;;5013215;28;20042;-74
2022/01/22 04:34:12;;;;;;;7.88;4.85;;;;;;;;;;5012762;28;20049;-74
2022/01/22 04:36:39;;;;;;;7.22;5.20;;;;;;;;;;5012919;28;20049;-73
2022/01/22 04:39:06;;;;;;;7.95;5.47;;;;;;;;;;5012968;28;20054;-74
2022/01/22 04:41:32;;;;;;;5.47;4.63;;;;;;;;;;5012892;28;20647;-74
2022/01/22 04:44:02;;;;;;;7.15;4.55;;;;;;;;;;5012676;28;20449;-74
2022/01/22 04:47:26;;;;;;;6.15;4.32;;;;;;;;;;5012751;28;20444;-74
2022/01/22 04:57:17;;;;;;;6.13;5.00;;;;;;;;;;5012696;28;20473;-73
2022/01/22 04:59:44;;;;;;;6.53;4.43;;;;;;;;;;5012374;28;20502;-73
2022/01/22 05:02:10;;;;;;;7.03;4.95;;;;;;;;;;5012361;28;20100;-73
2022/01/22 05:04:37;;;;;;;6.82;5.30;;;;;;;;;;5012814;28;20092;-73
2022/01/22 05:07:03;;;;;;;6.20;4.70;;;;;;;;;;5012176;28;20049;-73
2022/01/22 05:09:30;;;;;;;7.45;5.15;;;;;;;;;;5011921;28;20108;-73
2022/01/22 05:11:57;;;;;;;7.07;5.22;;;;;;;;;;5012512;28;20050;-73
2022/01/22 05:14:24;;;;;;;6.75;4.68;;;;;;;;;;5012154;28;20050;-74
2022/01/22 05:16:51;;;;;;;6.05;5.00;;;;;;;;;;5012292;28;20176;-74
2022/01/22 05:21:57;;;;;;;6.85;5.35;;;;;;;;;;5012078;28;20242;-74
2022/01/22 05:24:28;;;;;;;9.30;5.32;;;;;;;;;;5012004;28;20457;-72
2022/01/22 05:32:24;;;;;;;8.10;5.18;;;;;;;;;;5012332;28;20045;-73
2022/01/22 05:37:35;;;;;;;7.97;6.35;;;;;;;;;;5011995;28;20053;-72
2022/01/22 05:40:03;;;;;;;8.68;6.10;;;;;;;;;;5011854;28;20104;-72
2022/01/22 05:42:29;;;;;;;9.45;5.68;;;;;;;;;;5012056;28;20107;-73
2022/01/22 05:44:55;;;;;;;8.10;5.55;;;;;;;;;;5012053;28;20053;-73
2022/01/22 05:47:26;;;;;;;7.95;5.70;;;;;;;;;;5011968;28;20100;-72
2022/01/22 05:49:53;;;;;;;7.40;5.57;;;;;;;;;;5012167;28;20108;-72
2022/01/22 05:52:29;;;;;;;9.73;5.17;;;;;;;;;;5010786;28;20046;-72
2022/01/22 06:00:13;;;;;;;9.13;5.75;;;;;;;;;;5011632;28;20046;-73
2022/01/22 06:02:40;;;;;;;9.88;5.78;;;;;;;;;;5011773;28;20124;-74
2022/01/22 06:05:08;;;;;;;6.30;5.00;;;;;;;;;;5011806;28;20062;-73
2022/01/22 06:07:34;;;;;;;8.02;4.72;;;;;;;;;;5011477;28;20441;-73
2022/01/22 06:12:58;;;;;;;8.07;5.47;;;;;;;;;;5011884;28;20050;-72
2022/01/22 06:15:25;;;;;;;8.40;5.90;;;;;;;;;;5011609;28;20050;-72
2022/01/22 06:17:51;;;;;;;11.05;6.25;;;;;;;;;;5011531;28;20080;-72
2022/01/22 06:20:18;;;;;;;9.65;6.10;;;;;;;;;;5010154;28;20100;-72
2022/01/22 06:22:44;;;;;;;8.98;5.50;;;;;;;;;;5011789;28;20050;-72
2022/01/22 06:25:11;;;;;;;7.20;5.15;;;;;;;;;;5011387;28;20104;-72
2022/01/22 06:27:37;;;;;;;9.23;6.18;;;;;;;;;;5011350;28;20465;-72
2022/01/22 06:30:04;;;;;;;7.75;5.68;;;;;;;;;;5011528;28;20096;-72
2022/01/22 06:32:30;;;;;;;8.95;5.85;;;;;;;;;;5011303;28;20041;-73
2022/01/22 06:34:57;;;;;;;9.73;5.97;;;;;;;;;;5011535;28;20054;-73
2022/01/22 06:37:23;;;;;;;9.57;5.75;;;;;;;;;;5011641;28;20092;-73
2022/01/22 06:42:32;;;;;;;11.13;6.10;;;;;;;;;;5014239;28;20050;-73
2022/01/22 06:44:59;;;;;;;10.77;6.00;;;;;;;;;;5014866;28;20058;-73
2022/01/22 06:47:26;;;;;;;8.90;6.20;;;;;;;;;;5014959;28;20049;-73
2022/01/22 06:49:52;;;;;;;8.35;6.15;;;;;;;;;;5014966;28;20092;-73
2022/01/22 06:52:19;;;;;;;8.65;6.10;;;;;;;;;;5014843;28;20391;-73
2022/01/22 06:54:45;;;;;;;9.45;6.65;;;;;;;;;;5014951;28;20042;-73
2022/01/22 06:57:12;;;;;;;8.15;5.40;;;;;;;;;;5014873;28;20045;-73
2022/01/22 06:59:38;;;;;;;7.35;5.45;;;;;;;;;;5013277;28;20057;-73
2022/01/22 07:02:05;;;;;;;7.68;5.53;;;;;;;;;;5014791;28;20108;-73
2022/01/22 07:04:36;;;;;;;8.88;6.10;;;;;;;;;;5014643;28;20057;-73
2022/01/22 07:07:09;;;;;;;8.02;6.07;;;;;;;;;;5014406;28;20049;-73
2022/01/22 07:09:36;;;;;;;8.40;6.63;;;;;;;;;;5014615;28;20500;-73
2022/01/22 07:12:03;;;;;;;9.90;5.47;;;;;;;;;;5014495;28;20050;-74
2022/01/22 07:14:30;;;;;;;10.00;6.50;;;;;;;;;;5013060;28;20049;-73
2022/01/22 07:16:56;;;;;;;11.02;7.20;;;;;;;;;;5013437;28;20058;-74
2022/01/22 07:19:23;;;;;;;11.07;6.68;;;;;;;;;;5012979;28;20390;-74
2022/01/22 07:22:02;;;;;;;12.30;7.53;;;;;;;;;;5014677;28;20089;-74
2022/01/22 07:24:36;;;;;;;11.73;7.00;;;;;;;;;;5012930;28;20086;-74
2022/01/22 07:27:03;;;;;;;11.35;6.97;;;;;;;;;;5014321;28;20049;-74
2022/01/22 07:29:30;;;;;;;9.02;6.32;;;;;;;;;;5014232;28;20050;-74
2022/01/22 07:32:01;;;;;;;10.00;7.25;;;;;;;;;;5014262;28;20135;-74
2022/01/22 07:34:27;;;;;;;11.60;7.05;;;;;;;;;;5013869;28;20101;-74
2022/01/22 07:36:54;;;;;;;11.10;7.45;;;;;;;;;;5013924;28;20054;-73
2022/01/22 07:39:20;;;;;;;10.27;6.40;;;;;;;;;;5013748;28;20413;-73
2022/01/22 07:41:47;;;;;;;13.40;7.80;;;;;;;;;;5014074;28;20099;-74
2022/01/22 07:44:13;;;;;;;14.43;7.45;;;;;;;;;;5013987;28;20449;-72
2022/01/22 07:46:39;;;;;;;13.55;8.13;;;;;;;;;;5014031;28;20096;-72
2022/01/22 07:49:06;;;;;;;11.98;7.82;;;;;;;;;;5013532;28;20050;-72
2022/01/22 07:51:32;;;;;;;11.32;7.38;;;;;;;;;;5013480;28;20552;-74
2022/01/22 07:54:00;;;;;;;12.75;8.10;;;;;;;;;;5012662;28;20116;-72
2022/01/22 07:56:27;;;;;;;8.75;7.10;;;;;;;;;;5013838;28;20050;-73
2022/01/22 07:58:53;;;;;;;12.48;7.75;;;;;;;;;;5013701;28;20112;-73
2022/01/22 08:01:20;;;;;;;11.82;7.70;;;;;;;;;;5013759;28;20124;-73
2022/01/22 08:03:46;;;;;;;11.32;7.65;;;;;;;;;;5013132;28;20052;-74
2022/01/22 08:06:13;;;;;;;11.82;8.15;;;;;;;;;;5013635;28;20387;-73
2022/01/22 08:08:39;;;;;;;10.63;7.15;;;;;;;;;;5012904;28;20502;-73
2022/01/22 08:11:05;;;;;;;12.82;7.65;;;;;;;;;;5013476;28;20050;-71
2022/01/22 08:13:32;;;;;;;11.90;7.05;;;;;;;;;;5013366;28;20053;-74
2022/01/22 08:15:58;;;;;;;13.82;8.45;;;;;;;;;;5013023;28;20088;-74
2022/01/22 08:18:25;;;;;;;14.02;9.13;;;;;;;;;;5013174;28;20053;-74
2022/01/22 08:20:51;;;;;;;19.45;13.02;;;;;;;;;;5012726;28;20053;-75
2022/01/22 08:23:20;;;;;;;14.50;9.75;;;;;;;;;;5012056;28;20054;-75
2022/01/22 08:25:47;;;;;;;18.25;11.02;;;;;;;;;;5012100;28;20085;-74
2022/01/22 08:31:05;;;;;;;16.50;10.18;;;;;;;;;;5012187;28;20496;-74
2022/01/22 08:35:52;;;;;;;16.30;10.80;;;;;;;;;;4992827;28;20057;-74
2022/01/22 08:36:21;;;;;;;17.00;11.13;;;;;;;;;;5008284;28;20045;-74
2022/01/22 08:38:49;;;;;;;18.20;10.90;;;;;;;;;;5012463;28;20453;-75
2022/01/22 08:41:15;;;;;;;13.00;9.00;;;;;;;;;;4995052;28;20054;-73
2022/01/22 08:43:41;;;;;;;12.82;8.40;;;;;;;;;;5012056;28;20560;-75
2022/01/22 08:46:08;;;;;;;13.35;8.65;;;;;;;;;;5011441;28;20046;-76
2022/01/22 08:48:35;;;;;;;14.45;8.63;;;;;;;;;;5011640;28;20052;-75
2022/01/22 08:51:01;;;;;;;23.27;13.20;;;;;;;;;;5012285;28;20050;-76
2022/01/22 08:53:45;;;;;;;15.88;9.75;;;;;;;;;;5012780;28;20402;-75
2022/01/22 08:56:12;;;;;;;10.57;7.30;;;;;;;;;;5012815;28;20204;-75
2022/01/22 08:58:39;;;;;;;12.90;8.75;;;;;;;;;;5012401;28;20054;-75
2022/01/22 09:01:05;;;;;;;11.82;7.97;;;;;;;;;;5012679;28;20050;-75
2022/01/22 09:03:33;;;;;;;10.68;7.25;;;;;;;;;;5012415;28;20108;-75
2022/01/22 09:06:00;;;;;;;8.07;6.60;;;;;;;;;;5011422;28;20054;-74
2022/01/22 09:08:26;;;;;;;9.00;6.63;;;;;;;;;;5011600;28;20096;-72
2022/01/22 09:10:53;;;;;;;8.88;6.93;;;;;;;;;;5012380;28;20054;-73
2022/01/22 09:13:21;;;;;;;13.30;10.02;;;;;;;;;;5011752;28;20042;-74
2022/01/22 09:15:48;;;;;;;9.88;8.00;;;;;;;;;;5011620;28;20041;-73
2022/01/22 09:18:15;;;;;;;8.13;6.97;;;;;;;;;;5011381;28;20041;-73
2022/01/22 09:23:09;;;;;;;10.48;8.98;;;;;;;;;;5011199;28;20559;-72
2022/01/22 09:25:36;;;;;;;8.75;7.88;;;;;;;;;;5011927;28;20050;-73
2022/01/22 09:28:03;;;;;;;8.82;7.50;;;;;;;;;;5010767;28;20383;-75
2022/01/22 09:30:30;;;;;;;7.68;5.97;;;;;;;;;;5011447;28;20046;-74
2022/01/22 09:32:56;;;;;;;8.87;6.87;;;;;;;;;;5011385;28;20441;-75
2022/01/22 09:35:23;;;;;;;8.70;7.30;;;;;;;;;;5011304;28;20498;-76
2022/01/22 09:37:49;;;;;;;10.05;8.35;;;;;;;;;;5011396;28;20046;-76
2022/01/22 09:40:16;;;;;;;11.45;7.97;;;;;;;;;;5010662;28;20045;-73
2022/01/22 09:42:42;;;;;;;9.82;7.60;;;;;;;;;;5010681;28;20139;-74
2022/01/22 09:45:10;;;;;;;8.13;7.32;;;;;;;;;;5011822;28;20517;-75
2022/01/22 09:47:36;;;;;;;9.13;7.30;;;;;;;;;;5011819;28;20050;-74
2022/01/22 09:50:04;;;;;;;8.60;7.35;;;;;;;;;;5010474;28;20049;-75
2022/01/22 09:52:30;;;;;;;10.98;8.23;;;;;;;;;;5011120;28;20046;-76
2022/01/22 09:54:56;;;;;;;9.65;8.57;;;;;;;;;;5011504;28;20568;-74
2022/01/22 09:57:25;;;;;;;9.68;7.72;;;;;;;;;;5009000;28;20452;-75
2022/01/22 09:59:52;;;;;;;9.50;7.80;;;;;;;;;;5011107;28;20096;-72
2022/01/22 10:02:19;;;;;;;10.45;8.50;;;;;;;;;;5011008;28;20054;-74
2022/01/22 10:04:52;;;;;;;10.10;8.77;;;;;;;;;;5011372;28;20058;-73
2022/01/22 10:07:23;;;;;;;10.75;8.77;;;;;;;;;;5011017;28;20054;-76
2022/01/22 10:10:00;;;;;;;9.45;8.52;;;;;;;;;;5009232;28;20092;-77
2022/01/22 10:12:29;;;;;;;14.50;12.53;;;;;;;;;;5010219;28;20391;-67
2022/01/22 10:15:05;;;;;;;11.15;8.80;;;;;;;;;;5011024;28;20279;-67
2022/01/22 10:17:58;;;;;;;10.45;9.27;;;;;;;;;;5013388;28;20046;-68
2022/01/22 10:20:43;;;;;;;10.48;9.30;;;;;;;;;;5012622;28;20572;-66
2022/01/22 10:23:20;;;;;;;9.05;7.70;;;;;;;;;;5014635;28;20434;-65
2022/01/22 10:25:54;;;;;;;8.93;7.95;;;;;;;;;;5014996;28;20054;-67
2022/01/22 10:28:22;;;;;;;9.90;8.40;;;;;;;;;;5013597;28;20108;-66
2022/01/22 10:30:52;;;;;;;10.32;9.05;;;;;;;;;;5014236;28;20057;-67
2022/01/22 10:33:34;;;;;;;10.05;7.38;;;;;;;;;;5014955;28;20092;-66
2022/01/22 10:36:12;;;;;;;9.77;7.85;;;;;;;;;;5012450;28;20068;-66
2022/01/22 10:38:49;;;;;;;8.32;7.38;;;;;;;;;;5014621;28;20277;-65
2022/01/22 10:41:19;;;;;;;19.92;16.98;;;;;;;;;;5014045;28;20057;-66
2022/01/22 10:43:54;;;;;;;7.10;6.38;;;;;;;;;;5013426;28;20476;-66
2022/01/22 10:46:31;;;;;;;12.95;11.70;;;;;;;;;;5012856;28;20260;-66
2022/01/22 10:49:07;;;;;;;6.50;5.20;;;;;;;;;;5014664;28;20077;-66
2022/01/22 10:51:44;;;;;;;7.90;7.13;;;;;;;;;;5014690;28;20046;-66
2022/01/22 10:54:11;;;;;;;7.40;6.70;;;;;;;;;;5013528;28;20116;-67
2022/01/22 10:56:40;;;;;;;6.32;5.43;;;;;;;;;;5014464;28;20116;-66
2022/01/22 10:59:07;;;;;;;5.47;4.97;;;;;;;;;;5014200;28;20058;-67
2022/01/22 11:01:34;;;;;;;;;;;;;;;;;;5014626;28;20108;-75
2022/01/22 11:04:01;;;;;;;7.65;6.95;;;;;;;;;;5012517;28;20001;-75
2022/01/22 11:06:28;;;;;;;6.78;5.20;;;;;;;;;;5012143;28;20117;-74
2022/01/22 11:08:54;;;;;;;7.40;6.75;;;;;;;;;;5011645;28;20058;-73
2022/01/22 11:11:24;;;;;;;10.65;9.80;;;;;;;;;;5011608;28;20412;-74
2022/01/22 11:13:51;;;;;;;8.18;7.60;;;;;;;;;;5013908;28;20042;-73
2022/01/22 11:16:18;;;;;;;7.30;6.60;;;;;;;;;;5013733;28;20560;-74
2022/01/22 11:19:05;;;;;;;5.85;5.35;;;;;;;;;;5013839;28;20089;-73
2022/01/22 11:21:32;;;;;;;5.20;4.70;;;;;;;;;;5013746;28;20049;-74
2022/01/22 11:23:58;;;;;;;7.22;6.57;;;;;;;;;;5012435;28;20050;-73
2022/01/22 11:26:25;;;;;;;6.65;6.05;;;;;;;;;;5013554;28;20096;-72
2022/01/22 11:28:53;;;;;;;5.85;5.25;;;;;;;;;;5011257;28;20421;-73
2022/01/22 11:31:21;;;;;;;7.03;5.03;;;;;;;;;;5013312;28;20104;-73
2022/01/22 11:33:49;;;;;;;4.97;4.47;;;;;;;;;;5008319;28;20468;-70
2022/01/22 11:36:16;;;;;;;6.30;5.75;;;;;;;;;;5013048;28;20050;-72
2022/01/22 11:38:48;;;;;;;8.55;7.75;;;;;;;;;;5012889;28;20537;-71
2022/01/22 11:41:19;;;;;;;6.82;6.15;;;;;;;;;;5012382;28;20556;-71
2022/01/22 11:44:10;;;;;;;4.82;3.72;;;;;;;;;;5008444;28;20054;-71
2022/01/22 11:46:44;;;;;;;6.22;5.63;;;;;;;;;;5001148;28;20053;-73
2022/01/22 11:49:10;;;;;;;4.57;4.00;;;;;;;;;;5004597;28;20101;-73
2022/01/22 11:51:37;;;;;;;6.40;4.37;;;;;;;;;;5013188;28;20488;-70
2022/01/22 11:54:04;;;;;;;5.57;4.57;;;;;;;;;;5012607;28;20541;-71
2022/01/22 11:56:31;;;;;;;6.30;4.63;;;;;;;;;;5013390;28;20493;-72
2022/01/22 11:59:01;;;;;;;;;;;;;;;;;;5013386;28;20053;-71
2022/01/22 12:01:50;;;;;;;5.18;4.05;;;;;;;;;;5013264;28;19956;-73
2022/01/22 12:04:27;;;;;;;5.25;4.75;;;;;;;;;;5012306;28;20057;-71
2022/01/22 12:07:02;;;;;;;4.43;3.85;;;;;;;;;;5013620;28;20148;-71
2022/01/22 12:09:36;;;;;;;5.10;4.07;;;;;;;;;;5004314;28;20504;-69
2022/01/22 12:15:07;;;;;;;5.28;3.95;;;;;;;;;;5011871;28;20041;-72
2022/01/22 12:17:56;;;;;;;8.35;5.32;;;;;;;;;;5012896;28;20050;-69
2022/01/22 12:23:05;;;;;;;24.40;16.17;;;;;;;;;;5012730;28;20108;-71
2022/01/22 12:25:31;;;;;;;21.35;14.68;;;;;;;;;;5012833;28;20050;-71
2022/01/22 12:27:58;;;;;;;13.43;7.75;;;;;;;;;;5012716;28;20104;-72
2022/01/22 12:30:44;;;;;;;16.17;10.60;;;;;;;;;;5000593;28;20075;-72
2022/01/22 12:33:15;;;;;;;17.73;10.85;;;;;;;;;;5011592;28;20069;-72
2022/01/22 12:35:43;;;;;;;13.52;11.70;;;;;;;;;;5012310;28;20096;-71
2022/01/22 12:38:14;;;;;;;8.35;7.55;;;;;;;;;;5011022;28;20574;-71
2022/01/22 12:40:41;;;;;;;7.00;6.30;;;;;;;;;;5011784;28;20104;-71
2022/01/22 12:43:11;;;;;;;6.72;4.95;;;;;;;;;;5010556;28;20058;-70
2022/01/22 12:45:39;;;;;;;7.03;5.50;;;;;;;;;;5010382;28;20053;-69
2022/01/22 12:48:06;;;;;;;7.25;6.38;;;;;;;;;;5012104;28;20054;-69
2022/01/22 12:50:34;;;;;;;6.80;5.88;;;;;;;;;;5011846;28;20490;-70
2022/01/22 12:53:07;;;;;;;7.50;5.10;;;;;;;;;;5012308;28;20057;-71
2022/01/22 12:56:01;;;;;;;6.43;5.00;;;;;;;;;;5012226;28;20103;-70
2022/01/22 12:58:32;;;;;;;8.02;6.13;;;;;;;;;;5011868;28;20493;-69
2022/01/22 13:01:12;;;;;;;8.05;5.55;;;;;;;;;;5011760;28;20104;-70
2022/01/22 13:03:41;;;;;;;5.72;4.78;;;;;;;;;;5011365;28;20118;-70
2022/01/22 13:06:07;;;;;;;7.03;5.40;;;;;;;;;;5011716;28;20045;-70
2022/01/22 13:08:34;;;;;;;6.38;5.07;;;;;;;;;;5011473;28;20046;-71
2022/01/22 13:11:02;;;;;;;12.50;8.98;;;;;;;;;;5009449;28;20119;-70
2022/01/22 13:13:34;;;;;;;15.20;11.45;;;;;;;;;;5011259;28;20049;-70
2022/01/22 13:16:11;;;;;;;14.20;11.00;;;;;;;;;;5009180;28;20050;-72
2022/01/22 13:18:38;;;;;;;10.98;7.45;;;;;;;;;;5001918;28;20068;-70
2022/01/22 13:21:06;;;;;;;8.38;6.63;;;;;;;;;;5010686;28;20045;-71
2022/01/22 13:23:32;;;;;;;8.13;5.28;;;;;;;;;;5007579;28;20050;-71
2022/01/22 13:25:58;;;;;;;14.48;9.63;;;;;;;;;;5005766;28;20456;-71
2022/01/22 13:28:28;;;;;;;8.65;7.00;;;;;;;;;;5008439;28;20453;-71
2022/01/22 13:31:00;;;;;;;9.57;6.65;;;;;;;;;;5003845;28;20401;-71
2022/01/22 13:33:44;;;;;;;10.93;7.07;;;;;;;;;;5008747;28;20145;-71
2022/01/22 13:36:19;;;;;;;10.00;8.30;;;;;;;;;;5004876;28;20077;-71
2022/01/22 13:39:09;;;;;;;7.22;5.32;;;;;;;;;;5005898;28;20042;-71
2022/01/22 13:49:52;;;;;;;12.68;9.18;;;;;;;;;;5010488;28;20049;-71
2022/01/22 13:52:20;;;;;;;11.00;7.50;;;;;;;;;;5014325;28;20491;-71
2022/01/22 13:54:51;;;;;;;10.15;8.48;;;;;;;;;;5015096;28;20046;-71
2022/01/22 13:57:19;;;;;;;11.07;8.05;;;;;;;;;;5015764;28;20049;-71
2022/01/22 13:59:46;;;;;;;29.08;18.95;;;;;;;;;;5014785;28;20104;-71
2022/01/22 14:04:42;;;;;;;16.65;11.00;;;;;;;;;;5014328;28;20064;-71
2022/01/22 14:07:12;;;;;;;10.50;8.05;;;;;;;;;;5015805;28;20111;-71
2022/01/22 14:09:49;;;;;;;27.92;17.42;;;;;;;;;;5013300;28;20058;-71
2022/01/22 14:12:15;;;;;;;34.45;23.95;;;;;;;;;;5015608;28;20045;-71
2022/01/22 14:14:55;;;;;;;12.00;9.50;;;;;;;;;;5012417;28;20053;-71
2022/01/22 14:17:26;;;;;;;37.42;30.65;;;;;;;;;;5015316;28;20056;-71
2022/01/22 14:19:59;;;;;;;21.67;17.85;;;;;;;;;;5011767;28;20394;-71
2022/01/22 14:22:26;;;;;;;13.50;11.57;;;;;;;;;;5015406;28;20042;-71
2022/01/22 14:25:08;;;;;;;11.07;8.50;;;;;;;;;;5010620;28;20049;-71
2022/01/22 14:27:34;;;;;;;19.33;16.00;;;;;;;;;;5015121;28;20478;-71
2022/01/22 14:30:01;;;;;;;14.48;9.95;;;;;;;;;;5014205;28;20042;-71
2022/01/22 14:32:27;;;;;;;12.05;7.53;;;;;;;;;;5015326;28;20072;-71
2022/01/22 14:34:54;;;;;;;9.52;7.40;;;;;;;;;;5008926;28;20045;-71
2022/01/22 14:37:24;;;;;;;10.35;6.30;;;;;;;;;;5015492;28;20177;-71
2022/01/22 14:45:25;;;;;;;11.50;8.48;;;;;;;;;;5007202;28;20054;-71
2022/01/22 14:47:53;;;;;;;9.77;6.75;;;;;;;;;;5014849;28;20038;-71
2022/01/22 14:50:21;;;;;;;11.75;7.90;;;;;;;;;;5013806;28;20046;-71
2022/01/22 14:52:49;;;;;;;12.27;7.63;;;;;;;;;;5014945;28;20108;-71
2022/01/22 14:55:15;;;;;;;12.95;7.70;;;;;;;;;;5005191;28;20050;-71
2022/01/22 14:57:42;;;;;;;10.20;6.97;;;;;;;;;;5012958;28;20135;-70
2022/01/22 15:00:11;;;;;;;13.63;7.78;;;;;;;;;;5014433;28;20062;-71
2022/01/22 15:02:38;;;;;;;11.77;8.00;;;;;;;;;;5013325;28;20103;-70
2022/01/22 15:05:06;;;;;;;;;;;;;;;;;;5014285;28;20132;-71
2022/01/22 15:07:32;;;;;;;12.32;6.50;;;;;;;;;;5012310;28;19922;-70
2022/01/22 15:09:59;;;;;;;9.45;7.05;;;;;;;;;;5012707;28;20065;-69
2022/01/22 15:12:25;;;;;;;12.13;9.35;;;;;;;;;;5012917;28;20049;-69
2022/01/22 15:14:53;;;;;;;15.48;12.13;;;;;;;;;;5013678;28;20053;-69
2022/01/22 15:19:47;;;;;;;14.40;9.23;;;;;;;;;;5013096;28;20048;-69
2022/01/22 15:22:18;;;;;;;11.52;8.50;;;;;;;;;;5012915;28;20053;-71
2022/01/22 15:24:46;;;;;;;11.95;8.25;;;;;;;;;;5012949;28;20053;-71
2022/01/22 15:27:14;;;;;;;13.55;9.10;;;;;;;;;;5011879;28;20053;-71
2022/01/22 15:30:10;;;;;;;10.57;7.90;;;;;;;;;;5012138;28;20058;-71
2022/01/22 15:35:06;;;;;;;10.73;8.13;;;;;;;;;;5013698;28;20053;-70
2022/01/22 15:37:33;;;;;;;11.00;7.38;;;;;;;;;;5012941;28;20329;-72
2022/01/22 15:40:00;;;;;;;9.07;7.37;;;;;;;;;;5013284;28;20108;-71
2022/01/22 15:42:26;;;;;;;11.25;7.28;;;;;;;;;;5013007;28;20041;-71
2022/01/22 15:44:53;;;;;;;13.50;8.07;;;;;;;;;;5010841;28;20482;-71
2022/01/22 15:47:21;;;;;;;10.30;7.88;;;;;;;;;;5012677;28;20505;-73
2022/01/22 15:49:54;;;;;;;11.45;7.60;;;;;;;;;;5012955;28;20041;-72
2022/01/22 15:52:21;;;;;;;12.88;8.90;;;;;;;;;;5012698;28;20508;-70
2022/01/22 15:54:48;;;;;;;38.53;32.17;;;;;;;;;;5012758;28;20045;-69
2022/01/22 15:57:15;;;;;;;21.45;14.85;;;;;;;;;;5012885;28;20138;-69
2022/01/22 15:59:46;;;;;;;49.88;40.15;;;;;;;;;;5012949;28;20045;-69
2022/01/22 16:02:13;;;;;;;26.90;22.13;;;;;;;;;;5013259;28;20489;-69
2022/01/22 16:04:40;;;;;;;16.38;12.32;;;;;;;;;;5012365;28;20096;-69
2022/01/22 16:07:18;;;;;;;19.63;14.73;;;;;;;;;;5012539;28;20526;-68
2022/01/22 16:09:44;;;;;;;25.60;20.55;;;;;;;;;;5012543;28;20065;-70
2022/01/22 16:12:19;;;;;;;41.25;32.80;;;;;;;;;;5012278;28;20130;-68
2022/01/22 16:14:47;;;;;;;13.95;10.25;;;;;;;;;;5011405;28;20049;-69
2022/01/22 16:17:15;;;;;;;14.93;8.88;;;;;;;;;;5011995;28;20572;-70
2022/01/22 16:19:41;;;;;;;;;;;;;;;;;;5012545;28;20124;-69
2022/01/22 16:22:08;;;;;;;17.02;11.27;;;;;;;;;;5012131;28;19922;-69
2022/01/22 16:24:35;;;;;;;35.65;21.80;;;;;;;;;;5011974;28;20045;-68
2022/01/22 16:27:02;;;;;;;61.97;34.13;;;;;;;;;;5012000;28;20049;-69
2022/01/22 16:29:29;;;;;;;21.30;13.35;;;;;;;;;;5011868;28;20050;-70
2022/01/22 16:31:55;;;;;;;14.68;9.18;;;;;;;;;;5011870;28;20571;-69
2022/01/22 16:34:22;;;;;;;13.57;9.38;;;;;;;;;;5011556;28;20049;-69
2022/01/22 16:36:48;;;;;;;20.55;13.07;;;;;;;;;;5011494;28;20120;-70
2022/01/22 16:39:15;;;;;;;23.48;13.95;;;;;;;;;;5011711;28;20108;-69
2022/01/22 16:41:41;;;;;;;33.45;20.48;;;;;;;;;;5011498;28;20054;-69
2022/01/22 16:44:20;;;;;;;27.42;18.13;;;;;;;;;;5009362;28;20050;-70
2022/01/22 16:51:15;;;;;;;28.70;16.02;;;;;;;;;;5011601;28;20050;-69
2022/01/22 16:55:07;;;;;;;18.45;11.75;;;;;;;;;;5011386;28;20054;-71
2022/01/22 16:57:40;;;;;;;20.15;14.15;;;;;;;;;;5011756;28;20046;-72
2022/01/22 17:00:08;;;;;;;24.08;14.07;;;;;;;;;;5011460;28;20045;-71
2022/01/22 17:02:37;;;;;;;18.33;12.05;;;;;;;;;;5011237;28;20053;-70